createdAt,value
2018-11-13T00:01:23.532Z,81.52
2018-11-13T00:03:51.773Z,82.33
2018-11-13T00:06:19.994Z,82.25
2018-11-13T00:08:48.801Z,81.40
2018-11-13T00:11:17.075Z,81.03
2018-11-13T00:13:45.194Z,80.48
2018-11-13T00:16:13.375Z,80.68
2018-11-13T00:18:41.622Z,80.84
2018-11-13T00:21:09.880Z,80.97
2018-11-13T00:23:38.017Z,80.80
2018-11-13T00:26:06.247Z,81.37
2018-11-13T00:28:34.480Z,81.63
2018-11-13T00:31:02.675Z,81.64
2018-11-13T00:33:30.894Z,81.14
2018-11-13T00:35:59.152Z,81.77
2018-11-13T00:38:27.326Z,81.76
2018-11-13T00:40:56.126Z,81.72
2018-11-13T00:43:24.297Z,81.40
2018-11-13T00:45:55.913Z,82.22
2018-11-13T00:48:23.647Z,82.39
2018-11-13T00:50:51.795Z,82.69
2018-11-13T00:53:20.002Z,82.82
2018-11-13T00:55:48.118Z,82.92
2018-11-13T00:58:16.267Z,83.09
2018-11-13T01:00:44.492Z,82.33
2018-11-13T01:03:12.597Z,82.80
2018-11-13T01:05:40.759Z,83.05
2018-11-13T01:08:08.915Z,83.11
2018-11-13T01:10:37.231Z,83.53
2018-11-13T01:13:05.784Z,83.49
2018-11-13T01:15:33.996Z,83.13
2018-11-13T01:18:02.135Z,83.34
2018-11-13T01:20:30.309Z,83.54
2018-11-13T01:22:58.499Z,84.50
2018-11-13T01:25:27.012Z,84.38
2018-11-13T01:27:55.188Z,84.68
2018-11-13T01:30:23.431Z,84.04
2018-11-13T01:32:51.741Z,84.07
2018-11-13T01:35:20.083Z,84.16
2018-11-13T01:37:48.293Z,84.64
2018-11-13T01:40:18.319Z,84.85
2018-11-13T01:42:46.441Z,85.12
2018-11-13T01:45:15.603Z,85.10
2018-11-13T01:47:43.746Z,84.89
2018-11-13T01:50:12.379Z,84.33
2018-11-13T01:52:40.538Z,84.86
2018-11-13T01:55:10.549Z,84.80
2018-11-13T01:57:38.693Z,84.62
2018-11-13T02:00:15.755Z,84.68
2018-11-13T02:02:44.799Z,84.03
2018-11-13T02:05:12.919Z,83.58
2018-11-13T02:07:41.255Z,84.17
2018-11-13T02:10:09.662Z,83.82
2018-11-13T02:12:37.836Z,84.27
2018-11-13T02:15:07.141Z,84.27
2018-11-13T02:17:35.531Z,84.44
2018-11-13T02:20:04.303Z,84.64
2018-11-13T02:22:32.406Z,83.52
2018-11-13T02:25:00.719Z,84.31
2018-11-13T02:27:28.824Z,84.10
2018-11-13T02:29:56.933Z,84.44
2018-11-13T02:32:25.059Z,83.92
2018-11-13T02:34:53.249Z,83.54
2018-11-13T02:37:21.918Z,83.45
2018-11-13T02:39:50.019Z,84.25
2018-11-13T02:42:18.145Z,84.43
2018-11-13T02:44:46.271Z,85.19
2018-11-13T02:47:14.529Z,84.83
2018-11-13T02:49:42.823Z,84.27
2018-11-13T02:52:11.035Z,84.18
2018-11-13T02:54:39.136Z,84.54
2018-11-13T02:57:07.263Z,84.80
2018-11-13T02:59:35.428Z,86.39
2018-11-13T03:02:03.658Z,86.62
2018-11-13T03:04:31.777Z,86.34
2018-11-13T03:06:59.904Z,86.92
2018-11-13T03:09:28.059Z,86.66
2018-11-13T03:11:56.295Z,86.99
2018-11-13T03:14:24.596Z,87.49
2018-11-13T03:16:52.697Z,88.49
2018-11-13T03:19:20.872Z,88.46
2018-11-13T03:21:49.180Z,87.90
2018-11-13T03:24:17.310Z,88.10
2018-11-13T03:26:45.500Z,87.88
2018-11-13T03:29:13.590Z,88.49
2018-11-13T03:31:41.899Z,89.52
2018-11-13T03:34:10.179Z,89.68
2018-11-13T03:36:38.794Z,89.93
2018-11-13T03:39:08.221Z,89.79
2018-11-13T03:41:36.594Z,89.54
2018-11-13T03:44:05.078Z,89.58
2018-11-13T03:46:33.199Z,90.11
2018-11-13T03:49:01.366Z,89.73
2018-11-13T03:51:29.546Z,89.93
2018-11-13T03:53:57.649Z,89.95
2018-11-13T03:56:25.810Z,90.07
2018-11-13T03:58:53.908Z,90.27
2018-11-13T04:01:22.045Z,89.33
2018-11-13T04:03:51.089Z,90.03
2018-11-13T04:06:19.216Z,90.45
2018-11-13T04:08:47.326Z,90.62
2018-11-13T04:11:15.478Z,90.66
2018-11-13T04:13:43.584Z,90.11
2018-11-13T04:16:11.673Z,89.33
2018-11-13T04:18:39.832Z,89.82
2018-11-13T04:21:07.969Z,89.93
2018-11-13T04:23:36.111Z,91.55
2018-11-13T04:26:04.253Z,90.70
2018-11-13T04:28:32.503Z,92.23
2018-11-13T04:31:00.817Z,91.94
2018-11-13T04:33:28.996Z,92.31
2018-11-13T04:35:57.254Z,92.47
2018-11-13T04:38:25.476Z,92.98
2018-11-13T04:40:53.604Z,92.49
2018-11-13T04:43:21.912Z,91.82
2018-11-13T04:45:50.095Z,91.69
2018-11-13T04:48:18.231Z,92.17
2018-11-13T04:50:46.351Z,92.63
2018-11-13T04:53:14.495Z,92.98
2018-11-13T04:55:42.634Z,92.87
2018-11-13T04:58:10.793Z,91.98
2018-11-13T05:00:38.932Z,93.09
2018-11-13T05:03:07.201Z,93.33
2018-11-13T05:05:35.323Z,94.21
2018-11-13T05:08:03.523Z,94.78
2018-11-13T05:10:31.715Z,94.91
2018-11-13T05:12:59.963Z,95.20
2018-11-13T05:15:28.167Z,95.10
2018-11-13T05:17:56.459Z,95.17
2018-11-13T05:20:24.597Z,94.96
2018-11-13T05:22:52.845Z,95.08
2018-11-13T05:25:21.509Z,94.89
2018-11-13T05:27:49.711Z,94.86
2018-11-13T05:30:22.079Z,94.83
2018-11-13T05:32:50.437Z,94.96
2018-11-13T05:35:19.657Z,95.21
2018-11-13T05:37:48.194Z,95.44
2018-11-13T05:40:18.103Z,96.15
2018-11-13T05:42:46.342Z,95.62
2018-11-13T05:45:15.865Z,95.33
2018-11-13T05:47:44.248Z,94.73
2018-11-13T05:50:13.754Z,94.68
2018-11-13T05:52:42.745Z,94.72
2018-11-13T05:55:11.225Z,94.57
2018-11-13T05:57:39.596Z,94.75
2018-11-13T06:00:12.392Z,95.03
2018-11-13T06:02:40.530Z,95.57
2018-11-13T06:05:09.362Z,95.61
2018-11-13T06:07:37.475Z,96.08
2018-11-13T06:10:06.751Z,95.87
2018-11-13T06:12:34.916Z,95.87
2018-11-13T06:15:03.072Z,96.13
2018-11-13T06:17:31.203Z,96.75
2018-11-13T06:19:59.331Z,96.25
2018-11-13T06:22:27.490Z,95.59
2018-11-13T06:24:55.633Z,95.92
2018-11-13T06:27:23.908Z,95.98
2018-11-13T06:29:52.174Z,96.07
2018-11-13T06:32:20.463Z,96.84
2018-11-13T06:34:48.824Z,96.29
2018-11-13T06:37:17.116Z,96.25
2018-11-13T06:39:45.517Z,96.94
2018-11-13T06:42:13.757Z,97.46
2018-11-13T06:44:41.985Z,97.96
2018-11-13T06:47:10.239Z,98.39
2018-11-13T06:49:38.503Z,98.10
2018-11-13T06:52:06.607Z,98.21
2018-11-13T06:54:46.346Z,98.38
2018-11-13T06:57:14.549Z,98.11
2018-11-13T06:59:42.708Z,98.36
2018-11-13T07:02:10.853Z,98.33
2018-11-13T07:04:39.007Z,98.34
2018-11-13T07:07:07.124Z,98.66
2018-11-13T07:09:35.302Z,99.24
2018-11-13T07:12:03.462Z,99.04
2018-11-13T07:14:31.644Z,98.68
2018-11-13T07:16:59.797Z,99.21
2018-11-13T07:19:27.982Z,99.43
2018-11-13T07:21:56.192Z,99.41
2018-11-13T07:24:24.322Z,99.33
2018-11-13T07:26:52.489Z,99.22
2018-11-13T07:29:20.692Z,99.33
2018-11-13T07:31:48.886Z,99.00
2018-11-13T07:34:17.136Z,98.80
2018-11-13T07:36:45.235Z,98.94
2018-11-13T07:39:13.367Z,98.34
2018-11-13T07:41:41.734Z,98.42
2018-11-13T07:44:09.866Z,98.50
2018-11-13T07:46:38.061Z,98.56
2018-11-13T07:49:06.134Z,99.02
2018-11-13T07:51:34.422Z,99.66
2018-11-13T07:54:02.818Z,99.43
2018-11-13T07:56:30.978Z,99.81
2018-11-13T07:58:59.120Z,99.66
2018-11-13T08:01:27.287Z,99.79
2018-11-13T08:03:55.468Z,99.43
2018-11-13T08:06:23.681Z,99.68
2018-11-13T08:08:51.867Z,99.36
2018-11-13T08:11:20.027Z,99.31
2018-11-13T08:13:48.236Z,99.36
2018-11-13T08:16:16.396Z,99.33
2018-11-13T08:18:44.577Z,99.30
2018-11-13T08:21:12.778Z,98.86
2018-11-13T08:23:40.908Z,98.64
2018-11-13T08:26:09.297Z,99.07
2018-11-13T08:28:37.502Z,98.78
2018-11-13T08:31:06.249Z,98.10
2018-11-13T08:33:34.370Z,97.95
2018-11-13T08:36:02.670Z,98.17
2018-11-13T08:38:30.765Z,98.38
2018-11-13T08:40:58.928Z,98.31
2018-11-13T08:43:27.068Z,98.59
2018-11-13T08:45:55.196Z,98.87
2018-11-13T08:48:23.320Z,98.99
2018-11-13T08:50:51.515Z,99.54
2018-11-13T08:53:19.646Z,99.64
2018-11-13T08:55:47.885Z,99.93
2018-11-13T08:58:16.071Z,99.83
2018-11-13T09:00:44.190Z,99.65
2018-11-13T09:03:12.317Z,99.50
2018-11-13T09:05:40.448Z,99.44
2018-11-13T09:08:08.633Z,99.61
2018-11-13T09:10:37.897Z,99.26
2018-11-13T09:13:06.473Z,99.06
2018-11-13T09:15:34.650Z,98.80
2018-11-13T09:18:02.797Z,97.74
2018-11-13T09:20:30.957Z,97.94
2018-11-13T09:22:59.171Z,97.50
2018-11-13T09:25:27.369Z,97.25
2018-11-13T09:27:55.553Z,97.43
2018-11-13T09:30:24.032Z,97.85
2018-11-13T09:32:52.162Z,98.14
2018-11-13T09:35:20.637Z,98.23
2018-11-13T09:37:48.793Z,98.29
2018-11-13T09:40:19.265Z,98.10
2018-11-13T09:42:48.639Z,98.52
2018-11-13T09:45:17.207Z,98.63
2018-11-13T09:47:45.371Z,98.62
2018-11-13T09:50:15.135Z,98.73
2018-11-13T09:52:44.643Z,98.75
2018-11-13T09:55:14.261Z,98.56
2018-11-13T09:57:42.525Z,98.22
2018-11-13T10:00:14.347Z,97.78
2018-11-13T10:02:44.057Z,97.62
2018-11-13T10:05:12.138Z,97.71
2018-11-13T10:07:39.944Z,97.80
2018-11-13T10:10:09.134Z,97.37
2018-11-13T10:12:37.354Z,97.49
2018-11-13T10:15:08.075Z,97.13
2018-11-13T10:17:36.226Z,97.36
2018-11-13T10:20:04.389Z,97.41
2018-11-13T10:22:32.576Z,97.18
2018-11-13T10:25:00.736Z,97.15
2018-11-13T10:27:28.926Z,97.10
2018-11-13T10:29:57.377Z,97.26
2018-11-13T10:32:25.526Z,97.28
2018-11-13T10:34:53.691Z,96.64
2018-11-13T10:37:21.959Z,96.88
2018-11-13T10:39:50.204Z,97.23
2018-11-13T10:42:18.322Z,96.49
2018-11-13T10:44:46.531Z,96.42
2018-11-13T10:47:14.709Z,96.36
2018-11-13T10:49:42.886Z,96.78
2018-11-13T10:52:11.018Z,96.88
2018-11-13T10:54:39.337Z,97.25
2018-11-13T10:57:07.573Z,97.24
2018-11-13T10:59:35.725Z,97.27
2018-11-13T11:03:11.878Z,96.46
2018-11-13T11:05:40.242Z,96.61
2018-11-13T11:08:08.473Z,96.82
2018-11-13T11:10:36.638Z,97.06
2018-11-13T11:13:05.489Z,96.54
2018-11-13T11:15:33.408Z,96.48
2018-11-13T11:18:01.627Z,96.85
2018-11-13T11:20:29.801Z,96.51
2018-11-13T11:22:57.954Z,96.39
2018-11-13T11:25:26.317Z,95.75
2018-11-13T11:27:54.631Z,95.57
2018-11-13T11:30:22.707Z,95.79
2018-11-13T11:32:51.308Z,95.59
2018-11-13T11:35:19.442Z,95.64
2018-11-13T11:37:47.617Z,95.53
2018-11-13T11:40:15.802Z,96.17
2018-11-13T11:42:43.978Z,95.77
2018-11-13T11:45:13.443Z,96.32
2018-11-13T11:47:41.740Z,96.32
2018-11-13T11:50:10.972Z,96.65
2018-11-13T11:52:39.184Z,96.77
2018-11-13T11:55:08.213Z,97.04
2018-11-13T11:57:36.476Z,97.84
2018-11-13T12:00:07.070Z,97.59
2018-11-13T12:02:35.248Z,96.71
2018-11-13T12:05:03.569Z,97.03
2018-11-13T12:07:31.899Z,96.87
2018-11-13T12:10:00.293Z,96.95
2018-11-13T12:12:28.501Z,96.95
2018-11-13T12:14:56.842Z,96.90
2018-11-13T12:17:25.055Z,97.33
2018-11-13T12:19:53.431Z,97.06
2018-11-13T12:22:21.660Z,96.36
2018-11-13T12:24:49.876Z,95.58
2018-11-13T12:27:18.293Z,95.97
2018-11-13T12:29:46.512Z,95.13
2018-11-13T12:32:14.719Z,94.35
2018-11-13T12:34:42.876Z,94.00
2018-11-13T12:37:11.079Z,92.63
2018-11-13T12:39:39.345Z,92.47
2018-11-13T12:42:07.644Z,92.60
2018-11-13T12:44:35.799Z,91.85
2018-11-13T12:47:04.261Z,92.54
2018-11-13T12:49:32.435Z,93.36
2018-11-13T12:52:06.028Z,92.41
2018-11-13T12:54:34.217Z,92.91
2018-11-13T12:57:02.446Z,92.38
2018-11-13T12:59:30.663Z,92.46
2018-11-13T13:01:58.815Z,92.30
2018-11-13T13:04:27.057Z,91.99
2018-11-13T13:06:55.218Z,91.78
2018-11-13T13:09:23.394Z,91.94
2018-11-13T13:11:52.679Z,92.46
2018-11-13T13:14:20.819Z,92.61
2018-11-13T13:16:48.979Z,92.18
2018-11-13T13:19:17.184Z,91.49
2018-11-13T13:21:45.323Z,91.68
2018-11-13T13:24:13.483Z,91.05
2018-11-13T13:26:41.665Z,91.13
2018-11-13T13:29:09.840Z,90.60
2018-11-13T13:31:38.026Z,91.04
2018-11-13T13:34:06.175Z,90.63
2018-11-13T13:36:34.501Z,91.27
2018-11-13T13:39:02.702Z,91.62
2018-11-13T13:41:30.970Z,91.01
2018-11-13T13:43:59.168Z,90.14
2018-11-13T13:46:27.327Z,89.76
2018-11-13T13:48:55.474Z,89.77
2018-11-13T13:51:23.647Z,89.75
2018-11-13T13:53:51.987Z,90.16
2018-11-13T13:56:20.081Z,90.98
2018-11-13T13:58:48.383Z,90.84
2018-11-13T14:01:16.610Z,90.19
2018-11-13T14:03:44.977Z,89.97
2018-11-13T14:06:13.258Z,90.61
2018-11-13T14:08:41.947Z,91.38
2018-11-13T14:11:10.074Z,90.88
2018-11-13T14:13:38.250Z,90.46
2018-11-13T14:16:06.728Z,90.82
2018-11-13T14:18:34.936Z,90.87
2018-11-13T14:21:03.235Z,89.68
2018-11-13T14:23:31.265Z,90.14
2018-11-13T14:25:59.748Z,90.82
2018-11-13T14:28:27.929Z,90.34
2018-11-13T14:30:56.101Z,90.62
2018-11-13T14:33:24.245Z,90.70
2018-11-13T14:35:52.410Z,90.55
2018-11-13T14:38:20.611Z,91.11
2018-11-13T14:40:49.208Z,91.39
2018-11-13T14:43:17.373Z,91.49
2018-11-13T14:45:46.173Z,91.68
2018-11-13T14:48:14.418Z,92.03
2018-11-13T14:50:43.259Z,92.79
2018-11-13T14:53:12.123Z,93.05
2018-11-13T14:55:42.173Z,92.68
2018-11-13T14:58:11.459Z,93.49
2018-11-13T15:00:40.037Z,93.99
2018-11-13T15:03:09.658Z,93.75
2018-11-13T15:05:37.819Z,92.99
2018-11-13T15:08:07.178Z,93.42
2018-11-13T15:10:40.140Z,94.05
2018-11-13T15:13:08.725Z,93.93
2018-11-13T15:15:36.849Z,94.47
2018-11-13T15:18:05.325Z,94.35
2018-11-13T15:20:33.566Z,95.04
2018-11-13T15:23:01.801Z,95.88
2018-11-13T15:25:30.033Z,95.78
2018-11-13T15:27:58.155Z,96.23
2018-11-13T15:30:28.169Z,95.94
2018-11-13T15:32:59.750Z,95.98
2018-11-13T15:35:27.954Z,95.22
2018-11-13T15:37:56.174Z,94.54
2018-11-13T15:40:26.772Z,94.49
2018-11-13T15:42:54.903Z,93.43
2018-11-13T15:45:23.088Z,91.59
2018-11-13T15:47:52.118Z,88.20
2018-11-13T15:50:24.703Z,86.83
2018-11-13T15:52:52.922Z,86.37
2018-11-13T15:55:21.092Z,86.45
2018-11-13T15:57:49.546Z,86.07
2018-11-13T16:00:23.915Z,86.06
2018-11-13T16:02:52.580Z,86.99
2018-11-13T16:05:26.227Z,86.50
2018-11-13T16:07:55.576Z,86.33
2018-11-13T16:10:23.946Z,86.73
2018-11-13T16:12:52.187Z,86.56
2018-11-13T16:15:21.408Z,87.10
2018-11-13T16:17:50.368Z,88.37
2018-11-13T16:20:18.690Z,89.56
2018-11-13T16:22:46.835Z,91.24
2018-11-13T16:25:15.011Z,91.56
2018-11-13T16:27:43.197Z,92.04
2018-11-13T16:30:15.370Z,90.44
2018-11-13T16:32:44.522Z,90.04
2018-11-13T16:35:13.829Z,89.88
2018-11-13T16:37:43.268Z,89.81
2018-11-13T16:40:28.335Z,89.16
2018-11-13T16:42:56.469Z,89.11
2018-11-13T16:45:25.468Z,88.57
2018-11-13T16:47:54.240Z,89.63
2018-11-13T16:50:23.548Z,89.50
2018-11-13T16:52:51.836Z,88.44
2018-11-13T16:55:25.261Z,87.53
2018-11-13T16:57:54.059Z,87.71
2018-11-13T17:00:22.941Z,87.36
2018-11-13T17:02:51.119Z,86.87
2018-11-13T17:05:20.319Z,86.16
2018-11-13T17:07:48.470Z,85.79
2018-11-13T17:10:18.052Z,84.58
2018-11-13T17:12:46.492Z,82.52
2018-11-13T17:15:17.478Z,83.50
2018-11-13T17:17:46.546Z,82.92
2018-11-13T17:20:15.057Z,82.87
2018-11-13T17:22:43.706Z,81.93
2018-11-13T17:25:13.197Z,81.71
2018-11-13T17:27:42.510Z,81.33
2018-11-13T17:30:12.901Z,81.54
2018-11-13T17:32:41.552Z,80.47
2018-11-13T17:35:10.842Z,80.41
2018-11-13T17:37:38.992Z,79.73
2018-11-13T17:40:09.944Z,79.56
2018-11-13T17:42:38.241Z,78.96
2018-11-13T17:45:09.171Z,79.37
2018-11-13T17:47:37.587Z,79.58
2018-11-13T17:50:10.611Z,79.82
2018-11-13T17:52:38.794Z,79.93
2018-11-13T17:55:14.783Z,80.16
2018-11-13T17:57:43.936Z,80.70
2018-11-13T18:00:18.053Z,80.69
2018-11-13T18:02:47.533Z,81.41
2018-11-13T18:05:16.048Z,81.00
2018-11-13T18:07:44.617Z,80.21
2018-11-13T18:10:12.762Z,80.58
2018-11-13T18:12:40.945Z,80.48
2018-11-13T18:15:12.468Z,81.11
2018-11-13T18:17:40.610Z,81.50
2018-11-13T18:20:10.922Z,81.76
2018-11-13T18:22:39.392Z,82.38
2018-11-13T18:25:08.190Z,83.11
2018-11-13T18:27:37.135Z,82.91
2018-11-13T18:30:07.807Z,82.98
2018-11-13T18:32:36.004Z,82.83
2018-11-13T18:35:04.325Z,83.18
2018-11-13T18:37:32.610Z,83.68
2018-11-13T18:40:00.736Z,83.75
2018-11-13T18:42:28.979Z,83.86
2018-11-13T18:44:57.347Z,84.16
2018-11-13T18:47:25.541Z,84.72
2018-11-13T18:49:53.782Z,84.65
2018-11-13T18:52:22.153Z,84.97
2018-11-13T18:54:50.406Z,85.86
2018-11-13T18:57:18.657Z,85.79
2018-11-13T18:59:46.916Z,86.06
2018-11-13T19:02:15.240Z,85.96
2018-11-13T19:04:43.745Z,86.84
2018-11-13T19:07:13.074Z,86.90
2018-11-13T19:09:41.295Z,86.95
2018-11-13T19:12:09.552Z,86.89
2018-11-13T19:14:37.822Z,87.14
2018-11-13T19:17:06.067Z,86.75
2018-11-13T19:19:34.439Z,87.16
2018-11-13T19:22:02.735Z,87.47
2018-11-13T19:24:30.991Z,87.66
2018-11-13T19:26:59.240Z,88.28
2018-11-13T19:29:27.590Z,87.71
2018-11-13T19:31:55.790Z,88.73
2018-11-13T19:34:24.390Z,88.19
2018-11-13T19:36:52.820Z,88.68
2018-11-13T19:39:21.319Z,88.72
2018-11-13T19:41:49.613Z,89.43
2018-11-13T19:44:17.949Z,89.51
2018-11-13T19:46:46.262Z,89.87
2018-11-13T19:49:14.579Z,88.96
2018-11-13T19:51:43.122Z,89.00
2018-11-13T19:54:11.412Z,89.66
2018-11-13T19:56:40.682Z,89.79
2018-11-13T19:59:08.999Z,89.40
2018-11-13T20:01:37.436Z,89.60
2018-11-13T20:04:06.235Z,89.89
2018-11-13T20:06:34.451Z,90.32
2018-11-13T20:09:03.445Z,89.99
2018-11-13T20:11:35.924Z,89.84
2018-11-13T20:14:04.209Z,89.55
2018-11-13T20:16:32.745Z,89.87
2018-11-13T20:19:00.998Z,90.06
2018-11-13T20:21:29.334Z,90.04
2018-11-13T20:23:58.563Z,89.87
2018-11-13T20:26:26.876Z,90.44
2018-11-13T20:28:55.393Z,90.50
2018-11-13T20:31:23.721Z,90.30
2018-11-13T20:33:51.970Z,89.76
2018-11-13T20:36:20.296Z,89.81
2018-11-13T20:38:48.587Z,89.57
2018-11-13T20:41:16.951Z,89.81
2018-11-13T20:43:45.230Z,90.12
2018-11-13T20:46:13.912Z,89.67
2018-11-13T20:48:42.853Z,90.02
2018-11-13T20:51:11.142Z,89.89
2018-11-13T20:53:39.540Z,90.69
2018-11-13T20:56:07.822Z,90.83
2018-11-13T20:58:36.123Z,90.54
2018-11-13T21:01:04.406Z,91.03
2018-11-13T21:03:32.707Z,90.79
2018-11-13T21:06:01.045Z,91.21
2018-11-13T21:08:29.281Z,91.02
2018-11-13T21:10:59.310Z,90.95
2018-11-13T21:13:27.265Z,91.52
2018-11-13T21:15:55.818Z,92.22
2018-11-13T21:18:24.273Z,91.44
2018-11-13T21:20:52.527Z,92.61
2018-11-13T21:23:20.817Z,91.51
2018-11-13T21:25:49.049Z,90.84
2018-11-13T21:28:17.410Z,91.22
2018-11-13T21:30:45.811Z,91.14
2018-11-13T21:33:14.703Z,92.25
2018-11-13T21:35:43.167Z,92.39
2018-11-13T21:38:11.431Z,93.14
2018-11-13T21:40:39.700Z,92.50
2018-11-13T21:43:08.078Z,91.74
2018-11-13T21:45:36.409Z,91.73
2018-11-13T21:48:05.216Z,92.13
2018-11-13T21:50:33.526Z,92.81
2018-11-13T21:53:02.590Z,92.10
2018-11-13T21:55:30.865Z,92.37
2018-11-13T21:57:59.015Z,92.33
2018-11-13T22:00:29.358Z,91.88
2018-11-13T22:03:00.004Z,92.66
2018-11-13T22:05:29.201Z,92.84
2018-11-13T22:07:57.458Z,92.72
2018-11-13T22:10:25.601Z,93.07
2018-11-13T22:12:54.138Z,92.45
2018-11-13T22:15:23.481Z,91.73
2018-11-13T22:17:51.535Z,92.93
2018-11-13T22:20:20.431Z,92.50
2018-11-13T22:22:49.523Z,91.73
2018-11-13T22:25:21.001Z,92.57
2018-11-13T22:27:50.352Z,92.87
2018-11-13T22:30:21.802Z,92.91
2018-11-13T22:32:49.977Z,92.20
2018-11-13T22:35:18.713Z,92.44
2018-11-13T22:37:47.011Z,92.36
2018-11-13T22:40:16.870Z,92.58
2018-11-13T22:42:45.245Z,92.21
2018-11-13T22:45:16.663Z,92.71
2018-11-13T22:47:44.896Z,91.81
2018-11-13T22:50:16.333Z,93.42
2018-11-13T22:52:44.900Z,93.54
2018-11-13T22:55:13.821Z,92.05
2018-11-13T22:57:42.951Z,92.56
2018-11-13T23:00:15.767Z,92.28
2018-11-13T23:02:43.801Z,92.53
2018-11-13T23:05:11.976Z,92.50
2018-11-13T23:07:40.183Z,92.97
2018-11-13T23:10:10.218Z,91.52
2018-11-13T23:12:38.526Z,91.99
2018-11-13T23:15:09.038Z,92.69
2018-11-13T23:17:37.162Z,92.00
2018-11-13T23:43:06.192Z,91.79
2018-11-13T23:45:34.602Z,92.39
2018-11-13T23:48:02.805Z,92.02
2018-11-13T23:50:31.059Z,91.04
2018-11-13T23:52:59.489Z,91.26
2018-11-13T23:55:27.876Z,90.79
2018-11-13T23:57:56.053Z,91.10
